Kabetogama, Minnesota
Current Conditions -  °F | °C
As of 5:55 AM on Saturday 25 Oct 2014 (Local Time) from KINL Reporting Station
Clear Clear  
Wind Chill: 36°   Ceiling: Unl
Heat Index: 42°   Visibility: 10mi
Dew Point: 33°   Wind: 10mph
Humidity: 70%   Direction: 280°W
Pressure: 29.84"   Gusts: NA
Location:  48.5197°N, 92.902°W
Report Text: KINL 251055Z AUTO 28009KT 10SM CLR 06/01 A2984 RMK AO2 SLP108 T00560006
Loading
Personal Weather Stations






























Interactive Weather Map
Tropical Storm Tracking
New forecast layout! Learn more

10-Day Weather Forecast

Advertisements
Track Severe Weather on mobile